createdAt,value
2019-03-13T00:01:04.707Z,29.13
2019-03-13T00:03:33.556Z,26.93
2019-03-13T00:06:02.109Z,25.53
2019-03-13T00:08:30.660Z,30.23
2019-03-13T00:10:59.184Z,27.87
2019-03-13T00:13:27.815Z,26.20
2019-03-13T00:15:56.567Z,32.63
2019-03-13T00:19:27.820Z,30.23
2019-03-13T00:21:56.325Z,32.20
2019-03-13T00:24:24.793Z,33.70
2019-03-13T00:26:53.301Z,30.33
2019-03-13T00:29:21.760Z,32.53
2019-03-13T00:31:50.208Z,30.70
2019-03-13T00:34:18.669Z,32.90
2019-03-13T00:36:47.193Z,34.93
2019-03-13T00:39:16.083Z,34.00
2019-03-13T00:41:44.636Z,31.23
2019-03-13T00:44:13.146Z,32.73
2019-03-13T00:46:41.640Z,32.47
2019-03-13T00:49:10.382Z,30.07
2019-03-13T00:51:38.905Z,32.95
2019-03-13T00:54:07.354Z,35.13
2019-03-13T00:56:35.920Z,30.63
2019-03-13T00:59:04.752Z,27.73
2019-03-13T01:01:46.548Z,31.53
2019-03-13T01:04:19.468Z,25.53
2019-03-13T01:06:52.157Z,29.73
2019-03-13T01:09:20.617Z,30.60
2019-03-13T01:11:49.108Z,31.57
2019-03-13T01:14:17.771Z,25.63
2019-03-13T01:16:46.473Z,32.40
2019-03-13T01:19:14.948Z,32.33
2019-03-13T01:21:43.457Z,29.17
2019-03-13T01:24:12.026Z,29.97
2019-03-13T01:26:40.525Z,27.77
2019-03-13T01:29:09.096Z,25.47
2019-03-13T01:31:42.652Z,24.20
2019-03-13T01:34:17.388Z,24.93
2019-03-13T01:36:45.920Z,23.32
2019-03-13T01:39:14.724Z,25.23
2019-03-13T01:41:43.500Z,30.70
2019-03-13T01:44:12.372Z,28.70
2019-03-13T01:46:40.864Z,24.53
2019-03-13T01:49:09.400Z,21.70
2019-03-13T01:51:38.248Z,22.33
2019-03-13T01:54:06.756Z,28.67
2019-03-13T01:56:35.280Z,24.63
2019-03-13T01:59:04.811Z,25.48
2019-03-13T02:01:33.517Z,20.57
2019-03-13T02:04:02.030Z,21.30
2019-03-13T02:06:30.898Z,23.83
2019-03-13T02:08:59.413Z,23.80
2019-03-13T02:11:27.908Z,23.47
2019-03-13T02:13:56.516Z,23.03
2019-03-13T02:16:25.040Z,23.47
2019-03-13T02:18:53.500Z,22.70
2019-03-13T02:21:22.112Z,21.87
2019-03-13T02:23:50.612Z,22.13
2019-03-13T02:26:19.399Z,24.30
2019-03-13T02:28:48.276Z,25.73
2019-03-13T02:31:17.436Z,21.17
2019-03-13T02:33:45.897Z,22.32
2019-03-13T02:36:14.501Z,21.97
2019-03-13T02:38:43.373Z,23.10
2019-03-13T02:41:12.648Z,24.53
2019-03-13T02:43:41.188Z,26.07
2019-03-13T02:46:09.652Z,22.87
2019-03-13T02:48:38.147Z,27.50
2019-03-13T02:51:06.817Z,24.20
2019-03-13T02:53:35.280Z,25.45
2019-03-13T02:56:03.767Z,27.70
2019-03-13T02:58:32.295Z,24.12
2019-03-13T03:01:15.995Z,24.98
2019-03-13T03:03:48.491Z,26.20
2019-03-13T03:06:17.283Z,22.25
2019-03-13T03:08:45.808Z,22.70
2019-03-13T03:11:14.726Z,22.30
2019-03-13T03:13:43.293Z,27.33
2019-03-13T03:16:11.795Z,23.80
2019-03-13T03:18:40.297Z,25.27
2019-03-13T03:21:08.771Z,33.50
2019-03-13T03:23:37.234Z,28.17
2019-03-13T03:26:05.740Z,25.83
2019-03-13T03:28:34.219Z,26.83
2019-03-13T03:31:03.031Z,30.30
2019-03-13T03:33:31.558Z,24.20
2019-03-13T03:36:00.051Z,21.53
2019-03-13T03:38:28.863Z,24.57
2019-03-13T03:40:57.396Z,23.77
2019-03-13T03:43:39.366Z,23.87
2019-03-13T03:45:54.836Z,25.73
2019-03-13T03:48:23.411Z,22.63
2019-03-13T03:50:51.936Z,25.37
2019-03-13T03:53:20.423Z,20.57
2019-03-13T03:55:48.951Z,28.35
2019-03-13T03:58:17.651Z,25.65
2019-03-13T04:00:46.497Z,22.87
2019-03-13T04:03:15.020Z,24.80
2019-03-13T04:05:43.550Z,22.22
2019-03-13T04:08:12.073Z,26.95
2019-03-13T04:10:40.578Z,20.93
2019-03-13T04:13:09.135Z,27.83
2019-03-13T04:15:39.019Z,26.77
2019-03-13T04:18:07.512Z,21.93
2019-03-13T04:20:35.972Z,24.93
2019-03-13T04:23:04.792Z,22.00
2019-03-13T04:25:35.478Z,20.05
2019-03-13T04:28:05.523Z,22.15
2019-03-13T04:30:34.864Z,25.33
2019-03-13T04:33:03.368Z,23.35
2019-03-13T04:35:31.863Z,23.98
2019-03-13T04:38:00.411Z,25.02
2019-03-13T04:40:29.003Z,26.13
2019-03-13T04:42:58.275Z,27.50
2019-03-13T04:45:26.803Z,27.15
2019-03-13T04:47:55.328Z,21.37
2019-03-13T04:50:24.201Z,26.05
2019-03-13T04:52:52.835Z,23.67
2019-03-13T04:55:21.647Z,24.72
2019-03-13T04:57:50.259Z,21.70
2019-03-13T05:00:18.699Z,25.37
2019-03-13T05:02:47.200Z,22.45
2019-03-13T05:05:26.939Z,22.93
2019-03-13T05:07:55.814Z,22.65
2019-03-13T05:10:24.589Z,23.70
2019-03-13T05:12:53.337Z,21.87
2019-03-13T05:15:21.810Z,22.37
2019-03-13T05:20:33.274Z,25.27
2019-03-13T05:23:01.882Z,22.07
2019-03-13T05:25:30.651Z,22.67
2019-03-13T05:27:59.436Z,24.57
2019-03-13T05:30:27.986Z,24.63
2019-03-13T05:32:56.470Z,20.70
2019-03-13T05:35:25.290Z,23.22
2019-03-13T05:37:53.823Z,25.50
2019-03-13T05:40:22.662Z,23.00
2019-03-13T05:42:51.110Z,22.52
2019-03-13T05:45:19.612Z,24.27
2019-03-13T05:47:48.216Z,27.73
2019-03-13T05:50:16.791Z,23.93
2019-03-13T05:52:45.300Z,30.23
2019-03-13T05:55:13.839Z,25.47
2019-03-13T05:57:42.282Z,24.90
2019-03-13T06:00:11.286Z,23.00
2019-03-13T06:02:39.774Z,21.95
2019-03-13T06:05:08.506Z,22.33
2019-03-13T06:07:37.018Z,21.90
2019-03-13T06:10:05.922Z,19.15
2019-03-13T06:12:34.666Z,23.60
2019-03-13T06:15:03.808Z,21.40
2019-03-13T06:17:31.706Z,24.17
2019-03-13T06:20:00.486Z,20.20
2019-03-13T06:22:28.865Z,20.23
2019-03-13T06:24:57.622Z,22.03
2019-03-13T06:27:26.678Z,21.42
2019-03-13T06:29:55.158Z,24.65
2019-03-13T06:32:23.642Z,21.90
2019-03-13T06:34:52.102Z,22.95
2019-03-13T06:37:20.631Z,23.73
2019-03-13T06:39:49.162Z,22.10
2019-03-13T06:42:17.610Z,23.13
2019-03-13T06:44:46.252Z,28.77
2019-03-13T06:47:14.744Z,25.67
2019-03-13T06:49:43.258Z,19.87
2019-03-13T06:52:11.726Z,24.60
2019-03-13T06:54:40.210Z,22.33
2019-03-13T06:57:08.755Z,25.60
2019-03-13T07:01:50.142Z,25.85
2019-03-13T07:04:29.184Z,24.15
2019-03-13T07:07:02.990Z,24.25
2019-03-13T07:09:39.399Z,26.50
2019-03-13T07:12:25.441Z,25.13
2019-03-13T07:15:00.018Z,23.67
2019-03-13T07:17:47.871Z,23.90
2019-03-13T07:20:21.471Z,22.27
2019-03-13T07:22:54.126Z,19.53
2019-03-13T07:27:31.390Z,22.93
2019-03-13T07:30:06.985Z,25.27
2019-03-13T07:32:39.750Z,25.23
2019-03-13T07:35:15.844Z,21.70
2019-03-13T07:37:52.546Z,30.23
2019-03-13T07:40:26.251Z,22.35
2019-03-13T07:45:02.482Z,23.38
2019-03-13T07:48:09.055Z,20.08
2019-03-13T07:50:48.623Z,20.43
2019-03-13T07:55:24.929Z,20.95
2019-03-13T07:58:05.411Z,12.63
2019-03-13T08:00:40.993Z,15.50
2019-03-13T08:03:18.745Z,20.52
2019-03-13T08:05:52.853Z,24.15
2019-03-13T08:11:34.085Z,18.23
2019-03-13T08:14:38.933Z,16.77
2019-03-13T08:17:12.501Z,17.62
2019-03-13T08:19:46.357Z,16.03
2019-03-13T08:23:22.306Z,19.27
2019-03-13T08:25:55.921Z,20.80
2019-03-13T08:29:32.986Z,20.80
2019-03-13T08:33:05.330Z,23.43
2019-03-13T08:35:42.926Z,16.62
2019-03-13T08:38:16.513Z,17.98
2019-03-13T08:40:53.425Z,21.30
2019-03-13T08:43:42.932Z,23.42
2019-03-13T08:46:18.637Z,23.17
2019-03-13T08:48:57.402Z,23.10
2019-03-13T08:51:47.849Z,19.60
2019-03-13T08:54:35.492Z,21.30
2019-03-13T08:59:10.717Z,21.52
2019-03-13T09:01:46.429Z,17.17
2019-03-13T09:04:19.131Z,15.97
2019-03-13T09:06:53.770Z,17.30
2019-03-13T09:09:26.462Z,19.57
2019-03-13T09:14:01.340Z,19.33
2019-03-13T09:16:35.046Z,22.13
2019-03-13T09:19:15.748Z,20.63
2019-03-13T09:22:19.401Z,20.37
2019-03-13T09:25:10.848Z,18.67
2019-03-13T09:27:33.457Z,22.00
2019-03-13T09:30:13.277Z,19.50
2019-03-13T09:32:46.867Z,21.17
2019-03-13T09:35:20.866Z,20.63
2019-03-13T09:39:58.468Z,18.55
2019-03-13T09:43:34.428Z,23.52
2019-03-13T09:46:38.792Z,22.27
2019-03-13T09:49:19.342Z,21.00
2019-03-13T09:51:56.002Z,17.57
2019-03-13T09:54:30.640Z,20.37
2019-03-13T09:57:04.484Z,18.33
2019-03-13T09:59:43.425Z,21.23
2019-03-13T10:04:13.660Z,17.10
2019-03-13T10:07:51.631Z,21.13
2019-03-13T10:10:43.655Z,19.47
2019-03-13T10:13:16.376Z,21.70
2019-03-13T10:15:50.859Z,23.00
2019-03-13T10:18:23.547Z,17.65
2019-03-13T10:20:59.232Z,16.43
2019-03-13T10:24:36.137Z,16.57
2019-03-13T10:27:45.007Z,19.53
2019-03-13T10:30:23.847Z,17.57
2019-03-13T10:32:58.323Z,18.80
2019-03-13T10:35:31.067Z,21.47
2019-03-13T10:40:09.231Z,17.17
2019-03-13T10:44:44.583Z,15.90
2019-03-13T10:47:18.691Z,15.58
2019-03-13T10:49:51.383Z,20.65
2019-03-13T10:52:25.095Z,19.50
2019-03-13T10:56:02.475Z,21.10
2019-03-13T10:58:36.348Z,20.53
2019-03-13T11:01:12.238Z,18.60
2019-03-13T11:03:50.016Z,18.27
2019-03-13T11:06:30.820Z,22.02
2019-03-13T11:09:04.398Z,13.28
2019-03-13T11:11:37.106Z,20.33
2019-03-13T11:14:18.858Z,19.37
2019-03-13T11:16:59.386Z,16.73
2019-03-13T11:19:38.142Z,17.23
2019-03-13T11:22:11.843Z,17.42
2019-03-13T11:24:45.418Z,24.40
2019-03-13T11:27:37.374Z,19.53
2019-03-13T11:30:10.470Z,15.88
2019-03-13T11:32:46.582Z,15.23
2019-03-13T11:35:20.510Z,13.58
2019-03-13T11:37:57.595Z,15.70
2019-03-13T11:40:37.262Z,13.72
2019-03-13T11:43:11.671Z,12.25
2019-03-13T11:46:16.495Z,14.80
2019-03-13T11:49:52.478Z,28.12
2019-03-13T11:52:28.345Z,16.80
2019-03-13T11:55:01.066Z,10.65
2019-03-13T11:57:35.635Z,11.85
2019-03-13T12:00:10.975Z,9.78
2019-03-13T12:02:43.675Z,10.55
2019-03-13T12:05:23.247Z,16.60
2019-03-13T12:08:06.682Z,10.05
2019-03-13T12:10:40.326Z,11.70
2019-03-13T12:13:28.018Z,5.65
2019-03-13T12:16:18.438Z,7.12
2019-03-13T12:18:52.218Z,6.37
2019-03-13T12:21:29.138Z,5.10
2019-03-13T12:24:03.422Z,4.37
2019-03-13T12:26:45.202Z,5.40
2019-03-13T12:29:18.861Z,5.45
2019-03-13T12:32:59.240Z,4.28
2019-03-13T12:37:38.110Z,6.78
2019-03-13T12:42:14.419Z,7.25
2019-03-13T12:44:55.701Z,9.10
2019-03-13T12:47:32.558Z,7.05
2019-03-13T12:50:08.438Z,8.95
2019-03-13T12:54:49.194Z,10.40
2019-03-13T12:57:27.059Z,8.70
2019-03-13T13:00:00.873Z,11.80
2019-03-13T13:02:38.762Z,7.60
2019-03-13T13:07:16.414Z,6.05
2019-03-13T13:09:50.572Z,5.58
2019-03-13T13:12:27.279Z,5.47
2019-03-13T13:15:00.862Z,5.62
2019-03-13T13:17:34.042Z,8.50
2019-03-13T13:20:02.577Z,6.15
2019-03-13T13:22:31.054Z,9.30
2019-03-13T13:24:59.494Z,7.95
2019-03-13T13:27:28.083Z,9.55
2019-03-13T13:29:56.861Z,11.05
2019-03-13T13:32:26.074Z,5.55
2019-03-13T13:34:54.696Z,8.60
2019-03-13T13:37:23.870Z,10.83
2019-03-13T13:39:52.692Z,7.92
2019-03-13T13:42:21.417Z,8.63
2019-03-13T13:44:51.002Z,6.62
2019-03-13T13:47:19.665Z,7.83
2019-03-13T13:49:59.221Z,10.32
2019-03-13T13:52:17.893Z,12.60
2019-03-13T13:54:46.601Z,8.33
2019-03-13T13:57:15.717Z,6.63
2019-03-13T13:59:44.457Z,5.90
2019-03-13T14:02:13.237Z,7.62
2019-03-13T14:04:41.873Z,8.28
2019-03-13T14:07:10.828Z,8.75
2019-03-13T14:09:39.383Z,4.72
2019-03-13T14:12:08.300Z,4.87
2019-03-13T14:14:37.084Z,6.60
2019-03-13T14:17:05.675Z,5.50
2019-03-13T14:19:34.996Z,9.40
2019-03-13T14:22:03.503Z,18.62
2019-03-13T14:24:32.304Z,13.88
2019-03-13T14:27:13.633Z,12.90
2019-03-13T14:29:29.863Z,9.28
2019-03-13T14:31:58.731Z,9.55
2019-03-13T14:34:27.191Z,13.98
2019-03-13T14:36:55.703Z,11.75
2019-03-13T14:40:27.207Z,12.75
2019-03-13T14:42:55.753Z,16.10
2019-03-13T14:45:24.267Z,9.50
2019-03-13T14:47:52.804Z,15.08
2019-03-13T14:50:21.336Z,9.03
2019-03-13T14:52:49.779Z,5.62
2019-03-13T14:55:18.295Z,6.85
2019-03-13T14:57:46.846Z,6.50
2019-03-13T15:00:16.240Z,9.33
2019-03-13T15:02:44.809Z,8.60
2019-03-13T15:05:13.347Z,9.23
2019-03-13T15:07:41.907Z,6.30
2019-03-13T15:10:11.844Z,9.10
2019-03-13T15:12:42.950Z,7.67
2019-03-13T15:15:10.447Z,10.60
2019-03-13T15:17:39.083Z,9.60
2019-03-13T15:20:10.735Z,10.75
2019-03-13T15:22:39.267Z,7.55
2019-03-13T15:25:07.971Z,11.78
2019-03-13T15:27:36.683Z,11.93
2019-03-13T15:30:06.911Z,8.70
2019-03-13T15:32:35.687Z,12.28
2019-03-13T15:35:04.459Z,10.03
2019-03-13T15:37:33.060Z,11.65
2019-03-13T15:40:02.496Z,10.75
2019-03-13T15:42:31.003Z,10.30
2019-03-13T15:44:59.519Z,12.65
2019-03-13T15:47:28.044Z,15.85
2019-03-13T15:49:56.795Z,12.10
2019-03-13T15:52:25.277Z,13.58
2019-03-13T15:54:54.027Z,17.42
2019-03-13T15:57:22.539Z,16.40
2019-03-13T15:59:51.430Z,19.23
2019-03-13T16:02:20.161Z,17.25
2019-03-13T16:04:48.661Z,17.48
2019-03-13T16:07:17.317Z,23.32
2019-03-13T16:09:46.106Z,14.80
2019-03-13T16:12:14.694Z,11.15
2019-03-13T16:14:43.186Z,20.00
2019-03-13T16:17:11.718Z,18.17
2019-03-13T16:19:40.291Z,20.23
2019-03-13T16:22:08.817Z,10.95
2019-03-13T16:24:37.941Z,14.98
2019-03-13T16:27:06.471Z,17.23
2019-03-13T16:29:35.008Z,11.48
2019-03-13T16:32:03.739Z,11.33
2019-03-13T16:34:32.564Z,18.20
2019-03-13T16:37:01.161Z,12.58
2019-03-13T16:39:29.783Z,11.88
2019-03-13T16:41:58.339Z,14.40
2019-03-13T16:44:26.823Z,10.45
2019-03-13T16:46:55.299Z,12.55
2019-03-13T16:49:23.811Z,7.58
2019-03-13T16:51:52.282Z,9.95
2019-03-13T16:54:20.855Z,8.53
2019-03-13T16:56:49.351Z,8.03
2019-03-13T16:59:17.807Z,10.25
2019-03-13T17:01:46.287Z,15.32
2019-03-13T17:04:14.903Z,12.98
2019-03-13T17:06:43.447Z,14.50
2019-03-13T17:09:12.246Z,21.20
2019-03-13T17:11:40.838Z,14.80
2019-03-13T17:14:09.371Z,15.60
2019-03-13T17:16:38.627Z,12.80
2019-03-13T17:19:07.136Z,14.25
2019-03-13T17:21:35.780Z,15.80
2019-03-13T17:24:04.784Z,17.98
2019-03-13T17:26:33.260Z,11.70
2019-03-13T17:29:01.836Z,13.38
2019-03-13T17:31:30.332Z,13.85
2019-03-13T17:33:59.396Z,14.30
2019-03-13T17:36:27.876Z,14.05
2019-03-13T17:38:56.353Z,12.05
2019-03-13T17:41:24.993Z,13.48
2019-03-13T17:43:53.613Z,12.55
2019-03-13T17:46:23.158Z,12.28
2019-03-13T17:48:52.742Z,13.60
2019-03-13T17:51:21.193Z,9.98
2019-03-13T17:53:49.797Z,12.00
2019-03-13T17:56:18.314Z,7.40
2019-03-13T17:58:46.810Z,9.23
2019-03-13T18:01:15.345Z,8.68
2019-03-13T18:03:44.093Z,10.20
2019-03-13T18:06:12.645Z,12.80
2019-03-13T18:08:41.226Z,12.53
2019-03-13T18:11:09.739Z,7.78
2019-03-13T18:13:38.237Z,9.28
2019-03-13T18:16:06.857Z,11.50
2019-03-13T18:18:35.373Z,13.05
2019-03-13T18:21:04.809Z,9.70
2019-03-13T18:23:33.853Z,11.33
2019-03-13T18:26:02.393Z,12.05
2019-03-13T18:28:30.985Z,11.03
2019-03-13T18:31:01.845Z,10.30
2019-03-13T18:33:28.044Z,12.85
2019-03-13T18:35:56.524Z,10.30
2019-03-13T18:38:25.332Z,13.40
2019-03-13T18:40:54.468Z,13.93
2019-03-13T18:43:22.992Z,11.68
2019-03-13T18:45:51.604Z,13.88
2019-03-13T18:48:20.133Z,9.83
2019-03-13T18:50:48.952Z,8.15
2019-03-13T18:53:17.436Z,11.88
2019-03-13T18:55:45.980Z,15.25
2019-03-13T18:58:14.530Z,12.40
2019-03-13T19:00:43.116Z,12.65
2019-03-13T19:03:11.644Z,17.00
2019-03-13T19:05:40.552Z,10.28
2019-03-13T19:08:09.073Z,14.13
2019-03-13T19:10:37.877Z,10.18
2019-03-13T19:13:07.187Z,12.20
2019-03-13T19:15:35.713Z,13.58
2019-03-13T19:18:04.860Z,15.13
2019-03-13T19:20:33.400Z,15.25
2019-03-13T19:23:01.976Z,13.93
2019-03-13T19:25:30.456Z,9.10
2019-03-13T19:27:58.945Z,10.63
2019-03-13T19:30:28.720Z,8.88
2019-03-13T19:32:57.404Z,8.80
2019-03-13T19:35:25.960Z,9.70
2019-03-13T19:37:55.044Z,10.05
2019-03-13T19:40:23.590Z,9.80
2019-03-13T19:42:52.120Z,6.37
2019-03-13T19:45:24.508Z,10.47
2019-03-13T19:47:53.068Z,10.25
2019-03-13T19:50:21.620Z,7.30
2019-03-13T19:52:50.224Z,10.63
2019-03-13T19:55:18.948Z,10.67
2019-03-13T19:57:47.807Z,10.82
2019-03-13T20:00:18.120Z,10.48
2019-03-13T20:02:59.084Z,10.58
2019-03-13T20:05:15.296Z,11.18
2019-03-13T20:07:44.061Z,10.93
2019-03-13T20:10:15.112Z,12.37
2019-03-13T20:12:43.960Z,10.18
2019-03-13T20:15:14.104Z,7.30
2019-03-13T20:17:42.624Z,9.13
2019-03-13T20:20:12.076Z,10.78
2019-03-13T20:22:40.672Z,11.48
2019-03-13T20:25:10.220Z,11.93
2019-03-13T20:27:38.800Z,12.47
2019-03-13T20:30:08.988Z,8.75
2019-03-13T20:32:37.500Z,8.83
2019-03-13T20:35:06.177Z,11.55
2019-03-13T20:37:34.781Z,11.75
2019-03-13T20:40:03.336Z,10.45
2019-03-13T20:42:32.721Z,11.85
2019-03-13T20:45:01.236Z,11.68
2019-03-13T20:47:29.746Z,11.73
2019-03-13T20:49:58.317Z,10.55
2019-03-13T20:52:27.184Z,11.12
2019-03-13T20:54:56.435Z,11.08
2019-03-13T20:57:24.979Z,12.68
2019-03-13T20:59:54.567Z,7.00
2019-03-13T21:02:23.099Z,9.08
2019-03-13T21:04:51.983Z,11.83
2019-03-13T21:07:21.471Z,10.18
2019-03-13T21:09:49.982Z,13.83
2019-03-13T21:12:18.523Z,13.53
2019-03-13T21:14:47.050Z,9.60
2019-03-13T21:18:18.483Z,11.90
2019-03-13T21:20:48.185Z,14.20
2019-03-13T21:23:16.747Z,10.57
2019-03-13T21:25:45.227Z,10.48
2019-03-13T21:28:14.305Z,11.63
2019-03-13T21:30:42.861Z,13.35
2019-03-13T21:33:12.093Z,13.83
2019-03-13T21:35:40.623Z,10.93
2019-03-13T21:38:09.422Z,10.90
2019-03-13T21:40:38.521Z,9.30
2019-03-13T21:43:07.028Z,15.00
2019-03-13T21:45:40.944Z,24.72
2019-03-13T21:48:04.810Z,23.80
2019-03-13T21:50:33.414Z,21.23
2019-03-13T21:53:02.017Z,13.72
2019-03-13T21:55:30.808Z,12.07
2019-03-13T21:58:00.196Z,13.75
2019-03-13T22:00:28.843Z,11.00
2019-03-13T22:02:57.515Z,11.10
2019-03-13T22:05:27.291Z,12.88
2019-03-13T22:07:54.603Z,9.33
2019-03-13T22:10:23.219Z,15.23
2019-03-13T22:12:51.801Z,12.85
2019-03-13T22:15:20.376Z,14.68
2019-03-13T22:17:48.918Z,15.38
2019-03-13T22:20:18.712Z,12.45
2019-03-13T22:22:47.285Z,17.42
2019-03-13T22:25:15.879Z,12.37
2019-03-13T22:27:44.480Z,13.00
2019-03-13T22:30:16.496Z,19.77
2019-03-13T22:32:45.858Z,20.15
2019-03-13T22:35:15.228Z,19.05
2019-03-13T22:37:43.780Z,17.80
2019-03-13T22:40:12.624Z,12.70
2019-03-13T22:42:42.184Z,11.08
2019-03-13T22:45:11.436Z,14.05
2019-03-13T22:47:42.937Z,13.38
2019-03-13T22:50:11.388Z,15.15
2019-03-13T22:52:40.395Z,9.35
2019-03-13T22:55:08.984Z,12.10
2019-03-13T22:57:38.648Z,11.75
2019-03-13T23:00:26.050Z,10.30
2019-03-13T23:02:54.812Z,12.93
2019-03-13T23:05:23.953Z,7.00
2019-03-13T23:07:52.456Z,10.72
2019-03-13T23:10:26.480Z,10.80
2019-03-13T23:12:54.986Z,11.55
2019-03-13T23:15:24.119Z,12.33
2019-03-13T23:17:52.605Z,10.05
2019-03-13T23:20:21.167Z,12.15
2019-03-13T23:22:49.671Z,8.75
2019-03-13T23:25:18.238Z,10.50
2019-03-13T23:27:46.827Z,10.35
2019-03-13T23:30:15.387Z,13.48
2019-03-13T23:32:43.876Z,14.35
2019-03-13T23:35:12.443Z,9.83
2019-03-13T23:37:41.032Z,12.68
2019-03-13T23:40:09.632Z,7.90
2019-03-13T23:42:38.613Z,13.30
2019-03-13T23:45:07.209Z,13.08
2019-03-13T23:47:35.723Z,10.45
2019-03-13T23:50:05.127Z,11.95
2019-03-13T23:52:33.659Z,11.48
2019-03-13T23:55:02.187Z,8.90
2019-03-13T23:57:30.955Z,13.05
